createdAt,value
2023-03-06T00:00:25.240Z,9.23
2023-03-06T00:02:52.427Z,10.43
2023-03-06T00:05:19.325Z,8.23
2023-03-06T00:07:45.789Z,7.78
2023-03-06T00:10:18.022Z,8.05
2023-03-06T00:12:44.593Z,7.90
2023-03-06T00:15:12.395Z,6.88
2023-03-06T00:17:39.551Z,7.85
2023-03-06T00:20:07.180Z,8.93
2023-03-06T00:22:33.732Z,7.93
2023-03-06T00:25:00.245Z,9.45
2023-03-06T00:27:26.727Z,8.48
2023-03-06T00:29:57.673Z,8.65
2023-03-06T00:32:24.789Z,8.38
2023-03-06T00:34:52.375Z,8.30
2023-03-06T00:37:19.518Z,7.70
2023-03-06T00:39:46.605Z,7.70
2023-03-06T00:42:13.372Z,9.13
2023-03-06T00:44:39.841Z,7.93
2023-03-06T00:47:06.520Z,7.55
2023-03-06T00:49:33.203Z,8.40
2023-03-06T00:51:59.864Z,7.30
2023-03-06T00:54:26.432Z,8.40
2023-03-06T00:56:52.997Z,7.60
2023-03-06T00:59:19.664Z,7.55
2023-03-06T01:01:46.748Z,7.13
2023-03-06T01:04:14.508Z,6.82
2023-03-06T01:06:41.119Z,6.88
2023-03-06T01:09:07.644Z,7.55
2023-03-06T01:11:34.175Z,6.45
2023-03-06T01:14:00.800Z,7.60
2023-03-06T01:16:27.325Z,7.45
2023-03-06T01:18:53.846Z,7.32
2023-03-06T01:21:20.454Z,6.32
2023-03-06T01:23:47.478Z,7.35
2023-03-06T01:26:14.351Z,7.10
2023-03-06T01:28:40.960Z,7.75
2023-03-06T01:31:09.091Z,7.13
2023-03-06T01:33:36.443Z,8.35
2023-03-06T01:36:08.669Z,7.40
2023-03-06T01:38:36.092Z,7.00
2023-03-06T01:41:03.885Z,7.13
2023-03-06T01:43:39.039Z,6.85
2023-03-06T01:46:32.625Z,6.30
2023-03-06T01:49:23.932Z,5.85
2023-03-06T01:52:08.946Z,6.32
2023-03-06T01:54:40.731Z,6.75
2023-03-06T01:59:40.368Z,6.63
2023-03-06T02:02:09.508Z,7.53
2023-03-06T02:04:39.575Z,7.10
2023-03-06T02:07:07.487Z,7.03
2023-03-06T02:09:35.582Z,7.05
2023-03-06T02:12:06.254Z,6.03
2023-03-06T02:17:00.636Z,6.70
2023-03-06T02:20:12.489Z,7.35
2023-03-06T02:22:58.391Z,5.88
2023-03-06T02:25:37.249Z,6.20
2023-03-06T02:28:06.719Z,7.03
2023-03-06T02:30:33.710Z,6.22
2023-03-06T02:33:01.184Z,6.80
2023-03-06T02:35:33.664Z,6.22
2023-03-06T02:38:08.540Z,6.80
2023-03-06T02:40:35.251Z,7.13
2023-03-06T02:43:01.807Z,6.70
2023-03-06T02:45:34.990Z,7.65
2023-03-06T02:48:02.002Z,6.93
2023-03-06T02:50:29.810Z,7.10
2023-03-06T02:52:56.580Z,7.18
2023-03-06T02:55:23.458Z,7.13
2023-03-06T02:57:50.251Z,7.00
2023-03-06T03:00:17.788Z,7.30
2023-03-06T03:02:44.762Z,8.07
2023-03-06T03:05:11.389Z,6.85
2023-03-06T03:07:41.579Z,7.00
2023-03-06T03:10:09.526Z,6.90
2023-03-06T03:12:36.113Z,6.35
2023-03-06T03:15:03.746Z,7.68
2023-03-06T03:17:30.249Z,7.97
2023-03-06T03:19:56.795Z,7.45
2023-03-06T03:22:24.126Z,6.50
2023-03-06T03:24:50.576Z,7.07
2023-03-06T03:27:17.183Z,6.95
2023-03-06T03:29:43.749Z,6.95
2023-03-06T03:32:10.702Z,7.07
2023-03-06T03:34:37.304Z,7.00
2023-03-06T03:37:04.348Z,7.10
2023-03-06T03:39:30.890Z,6.43
2023-03-06T03:41:57.443Z,7.22
2023-03-06T03:44:24.037Z,7.85
2023-03-06T03:46:50.576Z,7.63
2023-03-06T03:49:20.995Z,7.78
2023-03-06T03:51:47.927Z,7.07
2023-03-06T03:54:14.710Z,7.13
2023-03-06T03:56:45.063Z,7.13
2023-03-06T03:59:25.358Z,7.82
2023-03-06T04:02:18.295Z,7.55
2023-03-06T04:04:52.968Z,7.32
2023-03-06T04:07:19.541Z,6.57
2023-03-06T04:09:46.356Z,7.10
2023-03-06T04:12:13.061Z,7.68
2023-03-06T04:14:39.627Z,6.45
2023-03-06T04:17:06.384Z,6.65
2023-03-06T04:19:33.172Z,5.85
2023-03-06T04:22:02.240Z,5.85
2023-03-06T04:24:30.809Z,6.30
2023-03-06T04:26:57.665Z,6.18
2023-03-06T04:29:24.497Z,6.90
2023-03-06T04:31:51.056Z,7.40
2023-03-06T04:34:17.568Z,7.00
2023-03-06T04:36:45.309Z,6.72
2023-03-06T04:39:13.876Z,7.80
2023-03-06T04:41:41.382Z,6.13
2023-03-06T04:44:08.743Z,6.38
2023-03-06T04:46:35.873Z,6.25
2023-03-06T04:49:02.813Z,5.82
2023-03-06T04:51:29.615Z,6.57
2023-03-06T04:53:56.209Z,6.47
2023-03-06T04:56:23.270Z,7.75
2023-03-06T04:58:49.870Z,7.07
2023-03-06T05:01:16.484Z,7.22
2023-03-06T05:03:43.051Z,7.22
2023-03-06T05:06:09.666Z,7.25
2023-03-06T05:08:36.443Z,6.75
2023-03-06T05:11:03.080Z,6.30
2023-03-06T05:13:29.641Z,6.55
2023-03-06T05:16:01.800Z,6.55
2023-03-06T05:18:28.300Z,6.40
2023-03-06T05:20:59.392Z,6.47
2023-03-06T05:23:30.660Z,7.90
2023-03-06T05:25:57.897Z,8.32
2023-03-06T05:28:25.871Z,7.00
2023-03-06T05:30:52.612Z,8.65
2023-03-06T05:33:19.111Z,7.35
2023-03-06T05:35:49.527Z,8.30
2023-03-06T05:38:17.653Z,7.28
2023-03-06T05:40:44.703Z,7.28
2023-03-06T05:43:12.001Z,7.55
2023-03-06T05:45:39.694Z,6.60
2023-03-06T05:48:07.056Z,6.82
2023-03-06T05:50:33.653Z,7.03
2023-03-06T05:53:00.766Z,7.88
2023-03-06T05:55:27.249Z,7.40
2023-03-06T05:57:54.106Z,7.18
2023-03-06T06:00:21.668Z,6.20
2023-03-06T06:02:48.816Z,7.20
2023-03-06T06:05:15.412Z,7.28
2023-03-06T06:07:42.436Z,7.43
2023-03-06T06:10:10.864Z,7.22
2023-03-06T06:12:37.791Z,7.45
2023-03-06T06:15:04.981Z,7.70
2023-03-06T06:17:31.493Z,7.45
2023-03-06T06:19:58.050Z,6.85
2023-03-06T06:22:24.575Z,7.70
2023-03-06T06:24:51.100Z,8.38
2023-03-06T06:27:17.590Z,7.35
2023-03-06T06:29:44.114Z,7.93
2023-03-06T06:32:10.677Z,7.65
2023-03-06T06:34:37.174Z,6.85
2023-03-06T06:37:03.759Z,8.23
2023-03-06T06:39:30.462Z,7.85
2023-03-06T06:42:14.711Z,6.70
2023-03-06T06:44:44.070Z,7.75
2023-03-06T06:47:26.380Z,7.00
2023-03-06T06:49:54.604Z,6.38
2023-03-06T06:52:22.302Z,6.53
2023-03-06T06:54:49.027Z,6.80
2023-03-06T06:57:15.971Z,6.35
2023-03-06T06:59:42.566Z,6.60
2023-03-06T07:02:12.473Z,7.10
2023-03-06T07:04:44.333Z,6.05
2023-03-06T07:07:15.926Z,5.88
2023-03-06T07:09:42.548Z,5.97
2023-03-06T07:12:09.287Z,7.20
2023-03-06T07:14:35.936Z,7.22
2023-03-06T07:17:02.500Z,6.45
2023-03-06T07:19:28.975Z,6.00
2023-03-06T07:21:55.509Z,6.15
2023-03-06T07:24:22.010Z,5.97
2023-03-06T07:26:48.619Z,6.32
2023-03-06T07:29:15.560Z,6.05
2023-03-06T07:31:42.536Z,7.07
2023-03-06T07:34:13.009Z,6.38
2023-03-06T07:36:40.400Z,6.35
2023-03-06T07:39:09.927Z,6.80
2023-03-06T07:41:36.585Z,6.97
2023-03-06T07:44:03.329Z,6.95
2023-03-06T07:46:29.904Z,6.47
2023-03-06T07:48:56.513Z,6.50
2023-03-06T07:51:23.058Z,7.05
2023-03-06T07:53:49.838Z,6.15
2023-03-06T07:56:16.729Z,6.80
2023-03-06T07:58:45.552Z,6.60
2023-03-06T08:01:18.253Z,6.30
2023-03-06T08:03:44.791Z,8.65
2023-03-06T08:06:20.258Z,7.75
2023-03-06T08:08:47.868Z,7.53
2023-03-06T08:11:16.397Z,7.03
2023-03-06T08:13:43.917Z,6.47
2023-03-06T08:16:11.278Z,6.22
2023-03-06T08:18:39.779Z,6.45
2023-03-06T08:21:13.303Z,7.22
2023-03-06T08:23:40.328Z,5.97
2023-03-06T08:26:10.523Z,6.88
2023-03-06T08:28:37.012Z,6.50
2023-03-06T08:31:12.755Z,7.50
2023-03-06T08:33:40.614Z,7.10
2023-03-06T08:36:07.524Z,6.05
2023-03-06T08:38:33.974Z,6.97
2023-03-06T08:41:00.490Z,6.00
2023-03-06T08:43:27.143Z,6.03
2023-03-06T08:45:55.377Z,6.25
2023-03-06T08:48:21.908Z,6.78
2023-03-06T08:50:48.520Z,6.55
2023-03-06T08:53:15.078Z,7.38
2023-03-06T08:55:41.820Z,6.15
2023-03-06T08:58:08.612Z,6.20
2023-03-06T09:00:36.574Z,7.25
2023-03-06T09:03:03.984Z,6.82
2023-03-06T09:05:30.513Z,6.50
2023-03-06T09:07:57.190Z,7.40
2023-03-06T09:10:25.235Z,7.07
2023-03-06T09:12:54.808Z,7.88
2023-03-06T09:15:22.812Z,7.28
2023-03-06T09:17:50.802Z,6.88
2023-03-06T09:20:18.532Z,6.57
2023-03-06T09:22:45.775Z,6.47
2023-03-06T09:25:20.256Z,6.50
2023-03-06T09:27:55.415Z,7.47
2023-03-06T09:30:28.483Z,6.90
2023-03-06T09:32:54.989Z,7.00
2023-03-06T09:35:21.444Z,7.07
2023-03-06T09:37:48.032Z,6.55
2023-03-06T09:40:53.033Z,7.43
2023-03-06T09:43:25.553Z,7.10
2023-03-06T09:45:52.556Z,7.03
2023-03-06T09:48:28.482Z,7.45
2023-03-06T09:51:02.786Z,6.20
2023-03-06T09:53:50.679Z,7.57
2023-03-06T09:56:23.089Z,6.50
2023-03-06T09:58:59.402Z,6.13
2023-03-06T10:01:34.928Z,6.15
2023-03-06T10:04:30.555Z,7.43
2023-03-06T10:07:04.384Z,7.55
2023-03-06T10:09:55.669Z,7.72
2023-03-06T10:12:24.881Z,6.82
2023-03-06T10:15:08.931Z,6.43
2023-03-06T10:17:41.738Z,6.75
2023-03-06T10:20:37.243Z,7.20
2023-03-06T10:23:35.329Z,7.20
2023-03-06T10:26:08.657Z,6.32
2023-03-06T10:28:37.596Z,7.50
2023-03-06T10:31:20.770Z,6.60
2023-03-06T10:34:06.705Z,6.85
2023-03-06T10:36:33.202Z,5.32
2023-03-06T10:38:59.951Z,7.10
2023-03-06T10:41:31.485Z,7.38
2023-03-06T10:44:19.798Z,6.43
2023-03-06T10:46:49.878Z,6.25
2023-03-06T10:49:27.667Z,6.63
2023-03-06T10:52:01.553Z,6.20
2023-03-06T10:54:30.928Z,6.47
2023-03-06T10:56:57.781Z,4.88
2023-03-06T10:59:28.237Z,7.03
2023-03-06T11:01:57.464Z,6.07
2023-03-06T11:04:26.959Z,6.55
2023-03-06T11:07:12.202Z,6.68
2023-03-06T11:09:38.847Z,6.45
2023-03-06T11:12:41.958Z,5.60
2023-03-06T11:15:14.438Z,5.13
2023-03-06T11:18:09.790Z,6.15
2023-03-06T11:20:52.549Z,5.63
2023-03-06T11:23:42.783Z,5.72
2023-03-06T11:26:15.242Z,6.30
2023-03-06T11:29:09.112Z,6.20
2023-03-06T11:31:42.826Z,5.82
2023-03-06T11:34:12.343Z,6.15
2023-03-06T11:36:47.267Z,6.43
2023-03-06T11:39:50.157Z,5.78
2023-03-06T11:42:34.284Z,6.40
2023-03-06T11:45:18.915Z,5.75
2023-03-06T11:47:58.979Z,5.97
2023-03-06T11:50:36.617Z,5.25
2023-03-06T11:53:11.162Z,5.28
2023-03-06T11:55:40.673Z,6.05
2023-03-06T11:58:25.775Z,5.40
2023-03-06T12:01:11.851Z,4.93
2023-03-06T12:04:04.367Z,5.50
2023-03-06T12:06:51.224Z,6.53
2023-03-06T12:09:33.193Z,5.63
2023-03-06T12:12:21.504Z,4.82
2023-03-06T12:14:51.009Z,5.18
2023-03-06T12:17:33.369Z,8.07
2023-03-06T12:20:27.264Z,6.15
2023-03-06T12:23:15.523Z,4.53
2023-03-06T12:26:11.284Z,5.60
2023-03-06T12:28:52.246Z,4.72
2023-03-06T12:31:59.278Z,7.30
2023-03-06T12:34:53.787Z,5.40
2023-03-06T12:37:31.310Z,5.70
2023-03-06T12:40:26.116Z,6.05
2023-03-06T12:43:20.674Z,6.97
2023-03-06T12:45:49.647Z,5.38
2023-03-06T12:48:23.088Z,5.82
2023-03-06T12:50:50.179Z,4.97
2023-03-06T12:53:27.600Z,5.43
2023-03-06T12:55:55.824Z,5.32
2023-03-06T12:58:28.431Z,8.65
2023-03-06T13:01:05.847Z,6.03
2023-03-06T13:03:44.797Z,4.80
2023-03-06T13:06:30.936Z,5.07
2023-03-06T13:09:07.467Z,4.95
2023-03-06T13:11:33.874Z,6.28
2023-03-06T13:14:00.388Z,6.47
2023-03-06T13:16:32.364Z,5.03
2023-03-06T13:19:24.210Z,5.97
2023-03-06T13:21:53.648Z,5.50
2023-03-06T13:24:22.081Z,6.10
2023-03-06T13:26:54.624Z,5.28
2023-03-06T13:29:36.390Z,5.05
2023-03-06T13:34:34.036Z,5.53
2023-03-06T13:37:25.293Z,5.85
2023-03-06T13:39:54.758Z,7.35
2023-03-06T13:42:30.201Z,6.05
2023-03-06T13:45:05.919Z,6.20
2023-03-06T13:48:19.457Z,4.85
2023-03-06T13:50:48.136Z,5.32
2023-03-06T13:53:48.280Z,5.32
2023-03-06T13:56:33.247Z,5.35
2023-03-06T13:59:36.669Z,4.30
2023-03-06T14:02:37.016Z,4.13
2023-03-06T14:05:11.785Z,5.22
2023-03-06T14:07:46.562Z,5.28
2023-03-06T14:10:13.008Z,4.78
2023-03-06T14:12:59.771Z,5.22
2023-03-06T14:15:35.937Z,5.13
2023-03-06T14:18:07.152Z,5.57
2023-03-06T14:20:52.478Z,4.63
2023-03-06T14:23:21.686Z,4.53
2023-03-06T14:25:54.574Z,5.38
2023-03-06T14:28:26.476Z,5.38
2023-03-06T14:30:54.621Z,5.75
2023-03-06T14:33:26.588Z,5.03
2023-03-06T14:36:02.149Z,5.03
2023-03-06T14:38:33.368Z,5.50
2023-03-06T14:41:00.139Z,4.50
2023-03-06T14:43:27.905Z,4.95
2023-03-06T14:46:06.470Z,4.60
2023-03-06T14:48:45.647Z,4.85
2023-03-06T14:51:21.669Z,5.18
2023-03-06T14:53:50.243Z,5.10
2023-03-06T14:56:23.201Z,4.65
2023-03-06T14:59:00.493Z,4.82
2023-03-06T15:01:29.986Z,5.18
2023-03-06T15:04:00.169Z,4.78
2023-03-06T15:06:38.203Z,5.88
2023-03-06T15:09:13.662Z,5.15
2023-03-06T15:12:04.349Z,5.45
2023-03-06T15:14:40.917Z,4.78
2023-03-06T15:17:37.870Z,5.03
2023-03-06T15:20:09.755Z,4.95
2023-03-06T15:22:40.535Z,6.30
2023-03-06T15:25:16.005Z,5.30
2023-03-06T15:27:57.487Z,4.88
2023-03-06T15:30:31.311Z,5.10
2023-03-06T15:33:24.241Z,5.55
2023-03-06T15:35:58.879Z,5.53
2023-03-06T15:38:32.882Z,6.10
2023-03-06T15:41:01.447Z,6.93
2023-03-06T15:43:31.734Z,5.32
2023-03-06T15:46:00.871Z,6.80
2023-03-06T15:48:28.491Z,6.75
2023-03-06T15:50:55.129Z,6.13
2023-03-06T15:53:21.696Z,7.05
2023-03-06T15:55:49.012Z,6.32
2023-03-06T15:58:20.435Z,6.45
2023-03-06T16:00:47.022Z,6.18
2023-03-06T16:03:13.557Z,5.88
2023-03-06T16:05:40.198Z,6.70
2023-03-06T16:08:09.395Z,6.78
2023-03-06T16:10:39.279Z,10.60
2023-03-06T16:13:18.864Z,8.80
2023-03-06T16:15:50.228Z,7.82
2023-03-06T16:18:17.550Z,8.07
2023-03-06T16:20:44.888Z,6.32
2023-03-06T16:23:11.541Z,7.28
2023-03-06T16:25:40.589Z,6.68
2023-03-06T16:28:12.364Z,7.43
2023-03-06T16:33:05.783Z,6.50
2023-03-06T16:35:32.378Z,7.65
2023-03-06T16:38:00.033Z,7.05
2023-03-06T16:40:29.597Z,7.60
2023-03-06T16:42:56.410Z,7.25
2023-03-06T16:45:24.452Z,6.32
2023-03-06T16:47:51.407Z,7.60
2023-03-06T16:50:30.683Z,8.27
2023-03-06T16:52:58.372Z,6.43
2023-03-06T16:55:26.582Z,7.85
2023-03-06T16:57:53.908Z,7.38
2023-03-06T17:00:21.390Z,6.70
2023-03-06T17:02:49.028Z,5.90
2023-03-06T17:05:15.850Z,7.43
2023-03-06T17:07:42.618Z,6.65
2023-03-06T17:10:12.180Z,7.55
2023-03-06T17:12:38.935Z,8.82
2023-03-06T17:15:06.450Z,7.35
2023-03-06T17:17:33.611Z,7.43
2023-03-06T17:20:00.258Z,7.47
2023-03-06T17:22:27.334Z,7.95
2023-03-06T17:24:53.925Z,7.57
2023-03-06T17:27:22.378Z,7.05
2023-03-06T17:29:48.917Z,6.65
2023-03-06T17:32:15.390Z,7.15
2023-03-06T17:34:42.195Z,6.45
2023-03-06T17:37:08.773Z,6.53
2023-03-06T17:39:37.936Z,6.85
2023-03-06T17:42:05.689Z,6.80
2023-03-06T17:44:33.244Z,7.72
2023-03-06T17:46:59.772Z,8.25
2023-03-06T17:49:26.312Z,7.80
2023-03-06T17:51:53.978Z,6.47
2023-03-06T17:54:20.719Z,8.43
2023-03-06T17:56:47.188Z,6.78
2023-03-06T17:59:14.178Z,6.78
2023-03-06T18:01:40.706Z,7.00
2023-03-06T18:04:07.632Z,6.78
2023-03-06T18:06:34.452Z,6.93
2023-03-06T18:09:01.369Z,6.30
2023-03-06T18:11:28.330Z,6.90
2023-03-06T18:13:54.997Z,7.50
2023-03-06T18:16:24.402Z,7.18
2023-03-06T18:18:52.640Z,5.97
2023-03-06T18:21:19.388Z,6.80
2023-03-06T18:23:45.875Z,6.97
2023-03-06T18:26:13.820Z,7.18
2023-03-06T18:28:42.597Z,7.25
2023-03-06T18:31:17.824Z,6.50
2023-03-06T18:33:44.880Z,5.93
2023-03-06T18:36:11.391Z,7.47
2023-03-06T18:38:39.599Z,6.13
2023-03-06T18:41:09.472Z,6.97
2023-03-06T18:43:37.068Z,6.90
2023-03-06T18:46:04.952Z,6.60
2023-03-06T18:48:31.547Z,7.18
2023-03-06T18:51:07.557Z,7.47
2023-03-06T18:53:34.718Z,6.90
2023-03-06T18:56:01.684Z,6.00
2023-03-06T18:58:28.177Z,7.57
2023-03-06T19:00:54.702Z,7.40
2023-03-06T19:03:21.252Z,8.40
2023-03-06T19:05:48.891Z,7.53
2023-03-06T19:08:16.805Z,12.82
2023-03-06T19:10:46.267Z,9.05
2023-03-06T19:13:13.761Z,8.30
2023-03-06T19:15:48.290Z,7.95
2023-03-06T19:18:17.680Z,6.47
2023-03-06T19:20:45.279Z,7.45
2023-03-06T19:23:11.797Z,7.03
2023-03-06T19:25:38.264Z,6.43
2023-03-06T19:28:05.571Z,7.13
2023-03-06T19:30:32.105Z,6.60
2023-03-06T19:32:58.747Z,7.63
2023-03-06T19:35:26.810Z,6.75
2023-03-06T19:37:53.562Z,6.95
2023-03-06T19:40:20.305Z,7.35
2023-03-06T19:42:46.901Z,7.40
2023-03-06T19:45:13.435Z,6.72
2023-03-06T19:47:39.929Z,6.93
2023-03-06T19:50:06.892Z,7.47
2023-03-06T19:52:36.400Z,6.45
2023-03-06T19:55:02.958Z,7.47
2023-03-06T19:57:29.740Z,10.52
2023-03-06T19:59:58.485Z,8.63
2023-03-06T20:02:27.155Z,9.27
2023-03-06T20:04:54.725Z,7.47
2023-03-06T20:07:21.614Z,7.60
2023-03-06T20:09:48.270Z,7.97
2023-03-06T20:12:15.557Z,9.43
2023-03-06T20:14:42.782Z,8.48
2023-03-06T20:17:09.247Z,8.18
2023-03-06T20:19:36.609Z,7.63
2023-03-06T20:22:03.470Z,7.75
2023-03-06T20:24:29.970Z,9.05
2023-03-06T20:26:57.675Z,8.32
2023-03-06T20:29:28.211Z,8.45
2023-03-06T20:31:57.174Z,7.13
2023-03-06T20:34:24.605Z,6.90
2023-03-06T20:36:51.445Z,9.20
2023-03-06T20:39:23.534Z,9.05
2023-03-06T20:41:50.051Z,7.80
2023-03-06T20:44:19.207Z,7.88
2023-03-06T20:46:46.128Z,7.40
2023-03-06T20:49:13.283Z,7.45
2023-03-06T20:51:41.448Z,8.25
2023-03-06T20:54:10.135Z,8.15
2023-03-06T20:56:39.503Z,8.52
2023-03-06T20:59:06.820Z,6.97
2023-03-06T21:01:35.977Z,7.80
2023-03-06T21:04:04.747Z,6.75
2023-03-06T21:06:32.358Z,7.00
2023-03-06T21:09:00.634Z,7.63
2023-03-06T21:11:28.486Z,7.22
2023-03-06T21:13:55.707Z,6.95
2023-03-06T21:16:24.578Z,6.97
2023-03-06T21:18:53.484Z,7.60
2023-03-06T21:21:24.108Z,7.30
2023-03-06T21:23:52.410Z,6.97
2023-03-06T21:26:22.116Z,7.82
2023-03-06T21:28:48.781Z,7.40
2023-03-06T21:31:18.018Z,6.68
2023-03-06T21:33:45.127Z,7.05
2023-03-06T21:36:11.943Z,7.38
2023-03-06T21:38:38.878Z,6.97
2023-03-06T21:41:12.815Z,6.10
2023-03-06T21:43:39.929Z,6.70
2023-03-06T21:46:06.668Z,6.28
2023-03-06T21:48:33.633Z,6.82
2023-03-06T21:51:15.849Z,6.35
2023-03-06T21:53:43.981Z,6.15
2023-03-06T21:56:12.864Z,6.22
2023-03-06T21:58:39.955Z,7.05
2023-03-06T22:01:11.735Z,5.78
2023-03-06T22:03:38.614Z,6.70
2023-03-06T22:06:10.427Z,6.07
2023-03-06T22:08:37.161Z,6.40
2023-03-06T22:11:08.209Z,6.55
2023-03-06T22:13:34.685Z,6.15
2023-03-06T22:16:01.347Z,5.97
2023-03-06T22:18:27.958Z,5.95
2023-03-06T22:20:54.773Z,6.60
2023-03-06T22:23:21.265Z,6.32
2023-03-06T22:25:47.828Z,6.10
2023-03-06T22:28:15.970Z,6.50
2023-03-06T22:30:42.829Z,6.40
2023-03-06T22:33:09.351Z,5.65
2023-03-06T22:35:35.903Z,6.13
2023-03-06T22:38:04.579Z,6.65
2023-03-06T22:40:32.468Z,6.80
2023-03-06T22:42:58.997Z,5.95
2023-03-06T22:45:25.515Z,6.65
2023-03-06T22:47:55.161Z,5.63
2023-03-06T22:50:23.828Z,6.25
2023-03-06T22:52:50.355Z,6.80
2023-03-06T22:55:16.948Z,5.95
2023-03-06T22:57:44.948Z,7.40
2023-03-06T23:00:12.107Z,7.20
2023-03-06T23:02:38.661Z,6.05
2023-03-06T23:05:05.464Z,6.95
2023-03-06T23:07:31.916Z,6.40
2023-03-06T23:10:01.109Z,6.07
2023-03-06T23:12:46.297Z,6.82
2023-03-06T23:15:31.985Z,6.88
2023-03-06T23:18:17.165Z,6.20
2023-03-06T23:21:14.144Z,6.32
2023-03-06T23:23:59.270Z,5.38
2023-03-06T23:26:28.992Z,6.63
2023-03-06T23:28:56.780Z,6.30
2023-03-06T23:31:28.637Z,7.05
2023-03-06T23:34:00.566Z,7.15
2023-03-06T23:36:28.246Z,7.25
2023-03-06T23:38:55.442Z,6.47
2023-03-06T23:41:23.640Z,5.95
2023-03-06T23:43:50.694Z,6.30
2023-03-06T23:46:17.781Z,6.57
2023-03-06T23:48:44.891Z,6.90
2023-03-06T23:51:17.014Z,6.47
2023-03-06T23:53:46.066Z,6.40
2023-03-06T23:56:13.272Z,6.13
2023-03-06T23:58:39.883Z,6.72
